.
WxDataArchive / Data Records for 2008-10-25
2008-10-24 October 2008 2008-10-26

Data Records for Saturday, 25 October 2008

Time	Temp	Chill	HIndex	Humid	Dewpt	 Wind 	HiWind	WindDir	Rain 	Barom 
-----	----	-----	------	-----	-----	------	------	-------	-----	----- 
00:00	47.0	47.0	47.0	92	44.8	1	2	135	0.00	29.847 
00:05	47.0	47.0	47.0	92	44.8	1	2	135	0.00	29.841 
00:10	47.0	47.0	47.0	92	44.8	1	4	135	0.00	29.837 
00:15	47.0	47.0	47.0	92	44.8	0	3	135	0.00	29.834 
00:20	46.8	46.8	46.8	92	44.6	0	2	135	0.00	29.834 
00:25	46.8	46.8	46.8	92	44.6	0	4	90	0.00	29.833 
00:30	46.8	46.8	46.8	92	44.6	0	2	90	0.00	29.825 
00:35	46.8	46.8	46.8	92	44.6	0	3	90	0.00	29.822 
00:40	46.8	46.8	46.8	93	44.9	1	4	112	0.00	29.824 
00:45	46.8	46.8	46.8	93	44.9	0	2	112	0.00	29.825 
00:50	46.8	46.8	46.8	93	44.9	0	2	112	0.00	29.827 
00:55	46.8	46.8	46.8	93	44.9	1	3	112	0.00	29.824 
01:00	47.0	47.0	47.0	93	45.1	1	4	112	0.00	29.824 
01:05	47.0	47.0	47.0	93	45.1	1	6	90	0.00	29.822 
01:10	47.1	47.1	47.1	93	45.2	1	3	90	0.00	29.819 
01:15	47.3	47.3	47.3	93	45.4	2	9	90	0.01	29.819 
01:20	47.3	47.3	47.3	93	45.4	1	5	248	0.00	29.823 
01:25	47.1	47.1	47.1	93	45.2	1	5	248	0.00	29.820 
01:30	46.8	46.8	46.8	92	44.6	1	3	248	0.00	29.820 
01:35	46.5	46.5	46.5	92	44.3	1	3	248	0.00	29.820 
01:40	46.4	46.4	46.4	92	44.2	1	5	248	0.00	29.822 
01:45	46.1	46.1	46.1	92	43.9	1	3	248	0.00	29.822 
01:50	46.0	46.0	46.0	92	43.8	0	3	248	0.00	29.821 
01:55	46.0	46.0	46.0	92	43.8	0	1	248	0.00	29.821 
02:00	45.8	45.8	45.8	92	43.6	1	2	248	0.00	29.820 
02:05	45.8	45.8	45.8	92	43.6	1	5	248	0.00	29.819 
02:10	45.8	45.8	45.8	92	43.6	1	4	248	0.00	29.819 
02:15	45.7	45.7	45.7	92	43.5	1	2	248	0.00	29.817 
02:20	45.7	45.7	45.7	92	43.5	0	2	248	0.00	29.815 
02:25	45.5	45.5	45.5	92	43.3	0	2	248	0.00	29.809 
02:30	45.5	45.5	45.5	92	43.3	1	3	248	0.00	29.812 
02:35	45.5	45.5	45.5	92	43.3	0	3	248	0.00	29.813 
02:40	45.4	45.4	45.4	92	43.2	0	3	248	0.00	29.812 
02:45	45.4	45.4	45.4	93	43.5	0	3	248	0.00	29.808 
02:50	45.4	45.4	45.4	93	43.5	1	3	248	0.00	29.808 
02:55	45.2	45.2	45.2	93	43.3	0	1	248	0.00	29.806 
03:00	45.2	45.2	45.2	93	43.3	1	2	248	0.00	29.806 
03:05	45.2	45.2	45.2	93	43.3	1	4	248	0.00	29.806 
03:10	45.2	45.2	45.2	93	43.3	1	2	248	0.00	29.806 
03:15	45.1	45.1	45.1	93	43.2	0	3	248	0.00	29.806 
03:20	45.1	45.1	45.1	93	43.2	0	3	248	0.00	29.807 
03:25	45.1	45.1	45.1	93	43.2	0	2	248	0.00	29.807 
03:30	45.1	45.1	45.1	93	43.2	0	2	248	0.00	29.806 
03:35	45.1	45.1	45.1	93	43.2	0	3	248	0.00	29.807 
03:40	45.1	45.1	45.1	93	43.2	0	2	248	0.00	29.806 
03:45	44.9	44.9	44.9	93	43.0	0	1	248	0.00	29.805 
03:50	44.9	44.9	44.9	93	43.0	1	3	248	0.00	29.805 
03:55	44.9	44.9	44.9	93	43.0	0	2	248	0.00	29.805 
04:00	44.8	44.8	44.8	93	42.9	0	3	248	0.00	29.805 
04:05	44.8	44.8	44.8	93	42.9	0	2	248	0.00	29.804 
04:10	44.6	44.6	44.6	93	42.7	0	2	248	0.00	29.804 
04:15	44.5	44.5	44.5	93	42.6	0	1	248	0.00	29.804 
04:20	44.5	44.5	44.5	93	42.6	0	2	248	0.00	29.804 
04:25	44.3	44.3	44.3	93	42.4	0	2	248	0.00	29.806 
04:30	44.2	44.2	44.2	93	42.3	0	2	248	0.00	29.805 
04:35	44.2	44.2	44.2	93	42.3	0	3	248	0.00	29.804 
04:40	44.3	44.3	44.3	93	42.4	1	3	248	0.00	29.806 
04:45	44.3	44.3	44.3	93	42.4	0	2	248	0.00	29.806 
04:50	44.3	44.3	44.3	93	42.4	0	2	248	0.00	29.807 
04:55	44.3	44.3	44.3	93	42.4	0	3	248	0.00	29.807 
05:00	44.5	44.5	44.5	93	42.6	1	5	248	0.00	29.806 
05:05	44.3	44.3	44.3	93	42.4	0	1	248	0.00	29.806 
05:10	44.3	44.3	44.3	93	42.4	1	5	248	0.00	29.807 
05:15	44.2	44.2	44.2	93	42.3	1	3	248	0.00	29.808 
05:20	44.1	44.1	44.1	93	42.2	0	1	248	0.00	29.809 
05:25	43.9	43.9	43.9	93	42.0	1	4	248	0.00	29.807 
05:30	43.8	43.8	43.8	92	41.6	1	3	248	0.00	29.808 
05:35	43.8	43.8	43.8	92	41.6	1	6	248	0.00	29.809 
05:40	43.8	43.8	43.8	92	41.6	1	4	248	0.00	29.809 
05:45	43.8	43.8	43.8	92	41.6	1	4	248	0.00	29.811 
05:50	43.8	43.8	43.8	92	41.6	1	3	248	0.00	29.810 
05:55	43.8	43.8	43.8	91	41.3	1	5	248	0.00	29.809 
06:00	43.6	43.6	43.6	91	41.1	1	5	248	0.00	29.810 
06:05	43.5	43.5	43.5	90	40.8	2	7	248	0.00	29.810 
06:10	43.5	43.5	43.5	90	40.8	2	5	248	0.00	29.812 
06:15	43.5	43.5	43.5	89	40.5	1	4	248	0.00	29.816 
06:20	43.5	43.5	43.5	89	40.5	1	5	248	0.00	29.820 
06:25	43.3	43.3	43.3	89	40.3	2	7	248	0.00	29.822 
06:30	43.3	43.3	43.3	89	40.3	1	4	248	0.00	29.824 
06:35	43.3	43.3	43.3	89	40.3	1	3	270	0.00	29.825 
06:40	43.2	43.2	43.2	89	40.2	1	4	248	0.00	29.825 
06:45	42.9	42.9	42.9	88	39.6	1	4	248	0.00	29.826 
06:50	42.8	42.8	42.8	88	39.5	1	4	248	0.00	29.827 
06:55	42.6	42.6	42.6	88	39.3	1	5	248	0.00	29.827 
07:00	42.5	42.5	42.5	88	39.2	1	5	248	0.00	29.827 
07:05	42.3	42.3	42.3	88	39.0	1	4	248	0.00	29.827 
07:10	42.2	42.2	42.2	88	38.9	0	3	248	0.00	29.826 
07:15	42.1	42.1	42.1	88	38.8	0	3	248	0.00	29.825 
07:20	41.9	41.9	41.9	88	38.6	0	3	248	0.00	29.826 
07:25	41.8	41.8	41.8	88	38.5	0	1	248	0.00	29.827 
07:30	41.8	41.8	41.8	88	38.5	0	3	248	0.00	29.828 
07:35	41.9	41.9	41.9	89	38.9	1	3	248	0.00	29.829 
07:40	42.1	42.1	42.1	88	38.8	1	3	248	0.00	29.832 
07:45	42.1	42.1	42.1	88	38.8	0	2	248	0.00	29.834 
07:50	42.1	42.1	42.1	88	38.8	1	2	248	0.00	29.838 
07:55	42.2	42.2	42.2	88	38.9	0	2	248	0.00	29.838 
08:00	42.2	42.2	42.2	88	38.9	1	5	248	0.00	29.839 
08:05	42.2	42.2	42.2	88	38.9	1	4	270	0.00	29.841 
08:10	42.3	42.3	42.3	89	39.3	1	4	248	0.00	29.842 
08:15	42.5	42.5	42.5	89	39.5	1	4	270	0.00	29.841 
08:20	42.6	42.6	42.6	88	39.3	1	5	225	0.00	29.842 
08:25	42.8	42.8	42.8	88	39.5	2	6	270	0.00	29.842 
08:30	43.1	43.1	43.1	88	39.8	1	4	248	0.00	29.846 
08:35	43.3	43.3	43.3	88	40.0	2	6	248	0.00	29.846 
08:40	43.5	43.5	43.5	88	40.2	2	7	270	0.00	29.846 
08:45	43.5	43.5	43.5	87	39.9	2	5	248	0.00	29.847 
08:50	43.5	43.5	43.5	87	39.9	1	4	248	0.00	29.852 
08:55	43.6	43.6	43.6	87	40.0	0	3	248	0.00	29.855 
09:00	43.6	43.6	43.6	87	40.0	2	6	248	0.00	29.855 
09:05	43.6	43.6	43.6	87	40.0	2	6	248	0.00	29.855 
09:10	43.8	43.8	43.8	86	39.9	3	9	248	0.00	29.854 
09:15	43.9	43.9	43.9	86	40.0	1	5	248	0.00	29.852 
09:20	43.9	43.9	43.9	86	40.0	1	4	248	0.00	29.849 
09:25	44.2	44.2	44.2	86	40.3	2	4	248	0.00	29.844 
09:30	44.5	44.5	44.5	85	40.3	2	6	248	0.00	29.841 
09:35	44.9	44.9	44.9	84	40.4	2	6	248	0.00	29.843 
09:40	45.5	45.5	45.5	84	41.0	1	6	270	0.00	29.843 
09:45	46.2	46.2	46.2	83	41.3	2	5	248	0.00	29.843 
09:50	46.2	46.2	46.2	81	40.7	1	4	248	0.00	29.844 
09:55	46.0	46.0	46.0	81	40.5	1	5	248	0.00	29.842 
10:00	46.2	46.2	46.2	81	40.7	2	8	248	0.00	29.841 
10:05	46.7	46.7	46.7	81	41.2	2	6	248	0.00	29.838 
10:10	47.0	47.0	47.0	80	41.2	2	6	248	0.00	29.838 
10:15	47.4	47.4	47.4	79	41.2	3	9	248	0.00	29.839 
10:20	47.4	45.9	47.4	78	40.9	4	7	248	0.00	29.841 
10:25	47.7	46.2	47.7	77	40.8	4	7	270	0.00	29.844 
10:30	47.9	47.9	47.9	76	40.7	3	7	248	0.00	29.848 
10:35	47.7	47.7	47.7	76	40.5	3	7	270	0.00	29.848 
10:40	47.3	47.3	47.3	77	40.5	3	6	248	0.00	29.851 
10:45	47.0	47.0	47.0	77	40.2	3	5	248	0.00	29.851 
10:50	46.8	46.8	46.8	78	40.3	3	10	270	0.00	29.851 
10:55	46.7	46.7	46.7	78	40.2	3	6	248	0.00	29.847 
11:00	46.7	46.7	46.7	79	40.5	1	4	248	0.00	29.851 
11:05	46.5	46.5	46.5	78	40.0	2	5	248	0.00	29.851 
11:10	46.2	46.2	46.2	79	40.1	3	5	270	0.00	29.854 
11:15	46.2	46.2	46.2	79	40.1	3	7	248	0.00	29.855 
11:20	46.1	46.1	46.1	78	39.6	2	7	248	0.00	29.855 
11:25	46.0	46.0	46.0	78	39.5	2	5	248	0.00	29.857 
11:30	45.7	45.7	45.7	79	39.6	2	5	270	0.00	29.857 
11:35	45.5	45.5	45.5	79	39.4	2	7	248	0.00	29.857 
11:40	45.5	45.5	45.5	80	39.7	2	9	248	0.00	29.857 
11:45	45.5	45.5	45.5	80	39.7	3	6	248	0.00	29.855 
11:50	45.4	45.4	45.4	81	39.9	2	5	270	0.00	29.856 
11:55	44.9	44.9	44.9	81	39.4	3	10	248	0.00	29.857 
12:00	44.5	44.5	44.5	81	39.0	3	7	248	0.00	29.858 
12:05	44.3	44.3	44.3	82	39.2	3	10	248	0.00	29.858 
12:10	44.2	44.2	44.2	82	39.1	3	9	248	0.00	29.858 
12:15	44.2	44.2	44.2	82	39.1	3	9	248	0.00	29.858 
12:20	44.3	42.3	44.3	80	38.5	4	10	270	0.00	29.856 
12:25	44.9	44.9	44.9	80	39.1	2	6	248	0.00	29.852 
12:30	45.5	45.5	45.5	78	39.0	3	10	248	0.00	29.847 
12:35	45.7	45.7	45.7	77	38.9	2	9	248	0.00	29.849 
12:40	46.0	46.0	46.0	77	39.2	2	7	248	0.00	29.847 
12:45	46.1	46.1	46.1	77	39.3	2	10	248	0.00	29.844 
12:50	46.2	46.2	46.2	77	39.4	3	7	248	0.00	29.841 
12:55	46.5	46.5	46.5	75	39.0	3	7	248	0.00	29.838 
13:00	46.5	46.5	46.5	75	39.0	3	6	248	0.00	29.837 
13:05	46.7	46.7	46.7	75	39.2	2	5	270	0.00	29.839 
13:10	47.0	47.0	47.0	74	39.1	2	7	248	0.00	29.838 
13:15	47.1	47.1	47.1	73	38.9	3	7	270	0.00	29.831 
13:20	47.1	47.1	47.1	73	38.9	3	7	270	0.00	29.832 
13:25	47.1	47.1	47.1	73	38.9	1	6	248	0.00	29.830 
13:30	47.1	47.1	47.1	74	39.2	3	7	248	0.00	29.827 
13:35	47.0	47.0	47.0	73	38.8	3	7	248	0.00	29.826 
13:40	47.0	47.0	47.0	73	38.8	2	10	248	0.00	29.824 
13:45	47.0	47.0	47.0	73	38.8	2	5	248	0.00	29.823 
13:50	47.0	47.0	47.0	73	38.8	2	6	248	0.00	29.823 
13:55	46.8	46.8	46.8	72	38.3	3	11	248	0.00	29.822 
14:00	46.8	46.8	46.8	72	38.3	2	6	248	0.00	29.821 
14:05	46.8	46.8	46.8	72	38.3	3	5	248	0.00	29.821 
14:10	46.8	46.8	46.8	73	38.6	3	6	248	0.00	29.821 
14:15	46.8	46.8	46.8	73	38.6	2	5	248	0.00	29.817 
14:20	47.0	47.0	47.0	73	38.8	1	5	248	0.00	29.817 
14:25	47.3	47.3	47.3	73	39.1	1	5	225	0.00	29.817 
14:30	47.3	47.3	47.3	73	39.1	2	6	248	0.00	29.818 
14:35	47.3	47.3	47.3	73	39.1	1	5	248	0.00	29.816 
14:40	47.1	47.1	47.1	74	39.2	1	4	248	0.00	29.816 
14:45	47.1	47.1	47.1	73	38.9	2	9	248	0.00	29.818 
14:50	46.8	46.8	46.8	73	38.6	2	6	248	0.00	29.821 
14:55	46.7	46.7	46.7	73	38.5	3	7	248	0.00	29.822 
15:00	46.7	46.7	46.7	73	38.5	3	8	248	0.00	29.823 
15:05	46.7	46.7	46.7	73	38.5	2	7	225	0.00	29.825 
15:10	46.7	46.7	46.7	73	38.5	3	7	248	0.00	29.825 
15:15	46.7	46.7	46.7	74	38.9	2	10	248	0.00	29.825 
15:20	46.7	46.7	46.7	73	38.5	2	6	248	0.00	29.823 
15:25	46.8	46.8	46.8	74	39.0	2	7	270	0.00	29.823 
15:30	46.8	46.8	46.8	73	38.6	1	5	248	0.00	29.824 
15:35	46.7	46.7	46.7	74	38.9	1	5	248	0.00	29.823 
15:40	46.7	46.7	46.7	74	38.9	2	6	248	0.00	29.822 
15:45	46.7	46.7	46.7	74	38.9	1	4	248	0.00	29.820 
15:50	46.7	46.7	46.7	74	38.9	1	3	248	0.00	29.816 
15:55	46.7	46.7	46.7	74	38.9	2	5	248	0.00	29.817 
16:00	46.5	46.5	46.5	74	38.7	1	4	248	0.00	29.819 
16:05	46.5	46.5	46.5	73	38.3	2	7	248	0.00	29.820 
16:10	46.5	46.5	46.5	73	38.3	2	5	248	0.00	29.816 
16:15	46.5	46.5	46.5	74	38.7	1	6	248	0.00	29.815 
16:20	46.5	46.5	46.5	73	38.3	2	6	270	0.00	29.819 
16:25	46.5	46.5	46.5	73	38.3	1	5	248	0.00	29.820 
16:30	46.5	46.5	46.5	73	38.3	2	5	248	0.00	29.820 
16:35	46.5	46.5	46.5	73	38.3	1	3	248	0.00	29.822 
16:40	46.4	46.4	46.4	73	38.2	2	4	248	0.00	29.822 
16:45	46.4	46.4	46.4	73	38.2	2	6	270	0.00	29.824 
16:50	46.4	46.4	46.4	73	38.2	1	6	248	0.00	29.824 
16:55	46.2	46.2	46.2	73	38.0	1	4	248	0.00	29.821 
17:00	46.2	46.2	46.2	73	38.0	1	4	248	0.00	29.824 
17:05	46.2	46.2	46.2	72	37.7	2	11	248	0.00	29.825 
17:10	46.2	46.2	46.2	72	37.7	1	6	248	0.00	29.823 
17:15	46.2	46.2	46.2	73	38.0	2	4	248	0.00	29.823 
17:20	46.2	46.2	46.2	73	38.0	2	7	248	0.00	29.823 
17:25	46.2	46.2	46.2	73	38.0	1	4	248	0.00	29.822 
17:30	46.1	46.1	46.1	73	37.9	1	4	248	0.00	29.820 
17:35	46.1	46.1	46.1	73	37.9	2	6	248	0.00	29.818 
17:40	46.0	46.0	46.0	73	37.8	1	5	292	0.00	29.814 
17:45	46.0	46.0	46.0	74	38.2	2	7	270	0.00	29.812 
17:50	45.8	45.8	45.8	74	38.0	1	5	248	0.00	29.812 
17:55	45.5	45.5	45.5	75	38.0	1	6	270	0.00	29.810 
18:00	45.2	45.2	45.2	76	38.1	1	7	225	0.00	29.808 
18:05	44.9	44.9	44.9	77	38.1	0	3	248	0.00	29.807 
18:10	44.6	44.6	44.6	77	37.8	1	4	248	0.00	29.810 
18:15	44.5	44.5	44.5	78	38.1	0	3	248	0.00	29.810 
18:20	44.3	44.3	44.3	78	37.9	0	4	248	0.00	29.811 
18:25	44.2	44.2	44.2	79	38.1	0	1	225	0.00	29.812 
18:30	44.1	44.1	44.1	79	38.0	0	4	248	0.00	29.812 
18:35	43.9	43.9	43.9	79	37.8	1	4	248	0.00	29.812 
18:40	43.9	43.9	43.9	80	38.1	1	3	248	0.00	29.812 
18:45	43.8	43.8	43.8	80	38.0	0	2	248	0.00	29.812 
18:50	43.8	43.8	43.8	80	38.0	0	3	248	0.00	29.814 
18:55	43.6	43.6	43.6	81	38.2	1	3	248	0.00	29.814 
19:00	43.6	43.6	43.6	81	38.2	0	2	270	0.00	29.813 
19:05	43.5	43.5	43.5	81	38.1	0	3	248	0.00	29.812 
19:10	43.5	43.5	43.5	82	38.4	0	3	248	0.00	29.811 
19:15	43.3	43.3	43.3	82	38.2	0	2	225	0.00	29.812 
19:20	43.5	43.5	43.5	82	38.4	0	2	248	0.00	29.809 
19:25	43.5	43.5	43.5	82	38.4	0	2	248	0.00	29.811 
19:30	43.6	43.6	43.6	83	38.8	0	3	248	0.00	29.811 
19:35	43.6	43.6	43.6	82	38.5	1	4	248	0.00	29.810 
19:40	43.8	43.8	43.8	82	38.7	2	7	248	0.00	29.809 
19:45	43.9	43.9	43.9	82	38.8	1	3	248	0.00	29.803 
19:50	43.9	43.9	43.9	82	38.8	1	3	248	0.00	29.803 
19:55	43.9	43.9	43.9	82	38.8	1	4	225	0.00	29.799 
20:00	43.9	43.9	43.9	81	38.5	1	3	270	0.00	29.798 
20:05	43.8	43.8	43.8	82	38.7	1	4	225	0.00	29.799 
20:10	43.6	43.6	43.6	82	38.5	1	4	225	0.00	29.802 
20:15	43.6	43.6	43.6	82	38.5	1	4	248	0.00	29.799 
20:20	43.5	43.5	43.5	82	38.4	1	4	225	0.00	29.798 
20:25	43.5	43.5	43.5	82	38.4	0	2	90	0.00	29.798 
20:30	43.3	43.3	43.3	83	38.5	1	3	248	0.00	29.800 
20:35	43.2	43.2	43.2	83	38.4	1	5	248	0.00	29.800 
20:40	43.2	43.2	43.2	83	38.4	1	2	248	0.00	29.798 
20:45	43.1	43.1	43.1	83	38.3	0	3	248	0.00	29.799 
20:50	42.9	42.9	42.9	83	38.1	0	1	248	0.00	29.798 
20:55	42.8	42.8	42.8	84	38.3	0	4	248	0.00	29.797 
21:00	42.6	42.6	42.6	84	38.1	0	3	248	0.00	29.796 
21:05	42.6	42.6	42.6	84	38.1	0	4	270	0.00	29.793 
21:10	42.5	42.5	42.5	84	38.0	0	2	270	0.00	29.792 
21:15	42.5	42.5	42.5	84	38.0	1	4	270	0.00	29.788 
21:20	42.6	42.6	42.6	84	38.1	1	3	248	0.00	29.785 
21:25	42.8	42.8	42.8	84	38.3	1	4	248	0.00	29.784 
21:30	42.9	42.9	42.9	83	38.1	1	3	270	0.00	29.782 
21:35	42.9	42.9	42.9	83	38.1	2	5	248	0.00	29.782 
21:40	43.1	43.1	43.1	82	38.0	1	5	248	0.00	29.779 
21:45	42.9	42.9	42.9	82	37.8	1	3	248	0.00	29.779 
21:50	42.9	42.9	42.9	82	37.8	1	4	248	0.00	29.780 
21:55	42.9	42.9	42.9	82	37.8	1	5	225	0.00	29.779 
22:00	42.9	42.9	42.9	82	37.8	1	4	248	0.00	29.779 
22:05	42.9	42.9	42.9	82	37.8	1	4	248	0.00	29.776 
22:10	42.8	42.8	42.8	82	37.7	1	7	248	0.00	29.775 
22:15	42.9	42.9	42.9	82	37.8	1	4	225	0.00	29.769 
22:20	42.9	42.9	42.9	82	37.8	1	4	248	0.00	29.766 
22:25	42.9	42.9	42.9	82	37.8	1	5	225	0.00	29.767 
22:30	43.1	43.1	43.1	82	38.0	2	7	248	0.00	29.763 
22:35	43.2	43.2	43.2	81	37.8	1	4	248	0.00	29.763 
22:40	43.2	43.2	43.2	81	37.8	1	3	248	0.00	29.762 
22:45	43.1	43.1	43.1	81	37.7	0	4	248	0.00	29.762 
22:50	43.1	43.1	43.1	82	38.0	1	5	248	0.00	29.762 
22:55	42.9	42.9	42.9	82	37.8	0	3	248	0.00	29.762 
23:00	42.9	42.9	42.9	82	37.8	1	4	270	0.00	29.768 
23:05	42.9	42.9	42.9	82	37.8	1	5	248	0.00	29.772 
23:10	42.8	42.8	42.8	82	37.7	1	3	248	0.00	29.773 
23:15	42.9	42.9	42.9	82	37.8	1	4	270	0.00	29.772 
23:20	42.9	42.9	42.9	82	37.8	1	6	270	0.00	29.771 
23:25	43.1	43.1	43.1	82	38.0	1	4	248	0.00	29.768 
23:30	43.1	43.1	43.1	82	38.0	1	5	248	0.00	29.768 
23:35	43.1	43.1	43.1	82	38.0	1	6	270	0.00	29.767 
23:40	43.2	43.2	43.2	82	38.1	1	5	225	0.00	29.764 
23:45	43.2	43.2	43.2	82	38.1	1	6	248	0.00	29.764 
23:50	43.2	43.2	43.2	81	37.8	1	4	225	0.00	29.764 
23:55	43.3	43.3	43.3	81	37.9	2	4	248	0.00	29.762 

CoCoRaHS
IN-AL-39
A2 Web Hosting
Creative Commons License
GoDaddy
Look for:

loaded 2017-10-16 20:27:10 • last modified 2010-11-18 10:43:29
Privacy PolicyDisclaimer
• wx.awcolley.com is powered by PmWiki v.2002016 •
• all content (unless otherwise noted) © 2017 A W Colley